createdAt,value
2019-03-21T00:01:30.425Z,17.57
2019-03-21T00:04:00.874Z,17.77
2019-03-21T00:06:28.807Z,18.40
2019-03-21T00:08:56.842Z,18.30
2019-03-21T00:12:01.180Z,17.83
2019-03-21T00:14:59.073Z,17.73
2019-03-21T00:17:29.603Z,17.90
2019-03-21T00:19:57.448Z,19.47
2019-03-21T00:22:25.277Z,19.60
2019-03-21T00:24:53.168Z,19.70
2019-03-21T00:27:21.039Z,18.47
2019-03-21T00:29:48.992Z,17.67
2019-03-21T00:32:16.848Z,18.93
2019-03-21T00:34:44.697Z,19.27
2019-03-21T00:37:12.516Z,18.47
2019-03-21T00:39:40.731Z,19.23
2019-03-21T00:42:08.567Z,18.60
2019-03-21T00:44:36.501Z,20.40
2019-03-21T00:47:04.334Z,19.60
2019-03-21T00:49:32.453Z,19.83
2019-03-21T00:52:00.365Z,20.33
2019-03-21T00:54:28.198Z,19.87
2019-03-21T00:56:56.330Z,20.60
2019-03-21T00:59:24.635Z,20.83
2019-03-21T01:01:52.544Z,21.87
2019-03-21T01:04:22.802Z,20.47
2019-03-21T01:06:50.655Z,20.27
2019-03-21T01:09:18.796Z,22.13
2019-03-21T01:11:46.621Z,20.33
2019-03-21T01:14:14.558Z,20.83
2019-03-21T01:16:42.500Z,21.13
2019-03-21T01:19:10.487Z,20.50
2019-03-21T01:21:38.326Z,21.93
2019-03-21T01:24:06.273Z,22.50
2019-03-21T01:26:34.125Z,22.67
2019-03-21T01:29:02.041Z,23.23
2019-03-21T01:31:30.285Z,21.23
2019-03-21T01:33:58.052Z,20.63
2019-03-21T01:36:26.307Z,22.03
2019-03-21T01:38:54.127Z,23.00
2019-03-21T01:41:22.222Z,21.63
2019-03-21T01:43:50.247Z,23.13
2019-03-21T01:46:18.130Z,22.10
2019-03-21T01:48:46.038Z,21.50
2019-03-21T01:51:13.957Z,21.10
2019-03-21T01:53:42.122Z,20.37
2019-03-21T01:56:10.177Z,20.50
2019-03-21T01:58:38.031Z,20.40
2019-03-21T02:01:08.714Z,20.10
2019-03-21T02:03:36.157Z,21.17
2019-03-21T02:06:04.027Z,20.50
2019-03-21T02:08:32.464Z,19.00
2019-03-21T02:11:00.283Z,18.33
2019-03-21T02:13:28.447Z,19.53
2019-03-21T02:15:59.200Z,19.00
2019-03-21T02:18:26.279Z,18.67
2019-03-21T02:20:54.130Z,18.40
2019-03-21T02:23:22.299Z,19.03
2019-03-21T02:25:50.110Z,18.43
2019-03-21T02:28:17.952Z,18.40
2019-03-21T02:30:46.065Z,19.40
2019-03-21T02:33:25.870Z,17.57
2019-03-21T02:35:53.787Z,17.87
2019-03-21T02:38:21.641Z,18.10
2019-03-21T02:40:49.971Z,18.77
2019-03-21T02:43:17.901Z,18.07
2019-03-21T02:45:45.758Z,17.20
2019-03-21T02:48:13.971Z,17.23
2019-03-21T02:50:41.929Z,17.33
2019-03-21T02:53:09.812Z,18.47
2019-03-21T02:55:37.914Z,18.63
2019-03-21T02:58:05.867Z,19.00
2019-03-21T03:00:33.995Z,17.87
2019-03-21T03:03:02.072Z,17.97
2019-03-21T03:05:30.201Z,18.50
2019-03-21T03:07:58.051Z,19.27
2019-03-21T03:10:31.598Z,20.17
2019-03-21T03:12:59.823Z,17.80
2019-03-21T03:15:28.890Z,18.77
2019-03-21T03:17:57.274Z,21.37
2019-03-21T03:20:25.777Z,20.63
2019-03-21T03:22:53.614Z,22.67
2019-03-21T03:25:21.473Z,22.23
2019-03-21T03:27:50.536Z,20.53
2019-03-21T03:30:20.276Z,21.57
2019-03-21T03:32:48.208Z,21.23
2019-03-21T03:35:16.115Z,19.20
2019-03-21T03:37:44.374Z,21.03
2019-03-21T03:40:17.896Z,21.37
2019-03-21T03:42:46.161Z,20.57
2019-03-21T03:45:17.404Z,20.80
2019-03-21T03:47:45.213Z,20.23
2019-03-21T03:50:13.058Z,19.97
2019-03-21T03:52:40.888Z,19.20
2019-03-21T03:55:10.107Z,20.20
2019-03-21T03:57:38.229Z,20.63
2019-03-21T04:00:08.246Z,20.93
2019-03-21T04:02:36.163Z,20.83
2019-03-21T04:05:05.132Z,21.03
2019-03-21T04:07:33.305Z,20.23
2019-03-21T04:10:01.239Z,20.53
2019-03-21T04:12:29.647Z,20.67
2019-03-21T04:14:57.577Z,19.50
2019-03-21T04:17:25.544Z,19.33
2019-03-21T04:19:53.501Z,20.60
2019-03-21T04:22:21.418Z,20.27
2019-03-21T04:24:49.317Z,20.13
2019-03-21T04:27:17.181Z,21.13
2019-03-21T04:29:45.373Z,21.73
2019-03-21T04:32:13.335Z,20.83
2019-03-21T04:34:41.249Z,21.40
2019-03-21T04:37:09.794Z,21.73
2019-03-21T04:39:37.615Z,20.73
2019-03-21T04:42:05.469Z,22.63
2019-03-21T04:44:33.870Z,21.80
2019-03-21T04:47:02.025Z,21.20
2019-03-21T04:49:29.858Z,20.63
2019-03-21T04:51:57.672Z,22.07
2019-03-21T04:54:25.552Z,19.90
2019-03-21T04:56:53.777Z,20.20
2019-03-21T04:59:21.606Z,20.13
2019-03-21T05:01:49.439Z,20.43
2019-03-21T05:04:17.365Z,19.37
2019-03-21T05:06:45.186Z,20.63
2019-03-21T05:09:16.044Z,19.93
2019-03-21T05:11:43.985Z,19.60
2019-03-21T05:14:11.850Z,20.77
2019-03-21T05:16:40.062Z,22.03
2019-03-21T05:19:08.745Z,24.00
2019-03-21T05:21:36.866Z,22.00
2019-03-21T05:24:04.985Z,20.70
2019-03-21T05:26:33.064Z,19.57
2019-03-21T05:29:01.213Z,20.23
2019-03-21T05:31:30.942Z,19.93
2019-03-21T05:33:58.992Z,20.30
2019-03-21T05:36:27.000Z,19.90
2019-03-21T05:38:54.958Z,19.07
2019-03-21T05:41:22.940Z,21.40
2019-03-21T05:44:18.549Z,20.73
2019-03-21T05:46:46.517Z,19.27
2019-03-21T05:49:14.383Z,21.07
2019-03-21T05:51:42.564Z,20.00
2019-03-21T05:54:10.584Z,19.63
2019-03-21T05:56:38.443Z,19.80
2019-03-21T05:59:06.252Z,19.77
2019-03-21T06:01:34.108Z,19.87
2019-03-21T06:04:01.933Z,21.40
2019-03-21T06:06:49.152Z,21.20
2019-03-21T06:09:18.381Z,21.20
2019-03-21T06:11:49.549Z,20.57
2019-03-21T06:14:17.468Z,21.33
2019-03-21T06:16:45.401Z,20.87
2019-03-21T06:19:17.319Z,22.97
2019-03-21T06:22:32.787Z,23.37
2019-03-21T06:25:39.877Z,22.47
2019-03-21T06:28:07.762Z,22.40
2019-03-21T06:30:35.700Z,23.10
2019-03-21T06:33:03.958Z,23.43
2019-03-21T06:35:31.886Z,22.60
2019-03-21T06:37:59.717Z,22.33
2019-03-21T06:40:27.654Z,21.97
2019-03-21T06:42:55.879Z,24.77
2019-03-21T06:45:25.835Z,25.53
2019-03-21T06:47:54.017Z,24.63
2019-03-21T06:50:22.491Z,26.90
2019-03-21T06:52:50.316Z,24.97
2019-03-21T06:55:18.154Z,24.70
2019-03-21T06:57:45.991Z,26.13
2019-03-21T07:00:14.521Z,26.50
2019-03-21T07:02:42.895Z,26.97
2019-03-21T07:05:11.320Z,26.27
2019-03-21T07:07:39.484Z,25.07
2019-03-21T07:10:08.631Z,25.07
2019-03-21T07:12:36.844Z,24.53
2019-03-21T07:15:05.440Z,23.93
2019-03-21T07:17:33.298Z,23.60
2019-03-21T07:20:01.213Z,22.77
2019-03-21T07:22:29.177Z,23.63
2019-03-21T07:24:57.009Z,22.23
2019-03-21T07:27:24.845Z,23.13
2019-03-21T07:29:52.675Z,23.83
2019-03-21T07:32:20.534Z,22.83
2019-03-21T07:34:50.355Z,21.97
2019-03-21T07:37:18.287Z,24.13
2019-03-21T07:39:46.386Z,22.00
2019-03-21T07:42:14.322Z,24.30
2019-03-21T07:44:42.146Z,26.40
2019-03-21T07:47:13.206Z,27.13
2019-03-21T07:49:39.959Z,27.27
2019-03-21T07:52:07.887Z,29.23
2019-03-21T07:54:36.061Z,29.93
2019-03-21T07:57:03.918Z,27.47
2019-03-21T07:59:31.831Z,22.50
2019-03-21T08:01:59.659Z,22.13
2019-03-21T08:04:27.517Z,22.20
2019-03-21T08:06:55.671Z,21.70
2019-03-21T08:09:24.234Z,22.77
2019-03-21T08:11:52.496Z,22.63
2019-03-21T08:14:20.341Z,19.33
2019-03-21T08:16:48.494Z,21.17
2019-03-21T08:19:16.452Z,19.00
2019-03-21T08:21:44.630Z,20.83
2019-03-21T08:24:12.442Z,20.13
2019-03-21T08:26:40.271Z,21.77
2019-03-21T08:29:08.408Z,19.90
2019-03-21T08:31:36.260Z,20.57
2019-03-21T08:34:04.393Z,21.37
2019-03-21T08:36:32.215Z,24.10
2019-03-21T08:39:00.190Z,24.87
2019-03-21T08:41:28.352Z,27.53
2019-03-21T08:43:56.164Z,32.57
2019-03-21T08:46:24.023Z,39.67
2019-03-21T08:48:51.854Z,38.93
2019-03-21T08:51:20.325Z,39.57
2019-03-21T08:53:48.507Z,39.33
2019-03-21T08:56:16.450Z,37.93
2019-03-21T08:58:45.107Z,28.80
2019-03-21T09:01:13.268Z,31.33
2019-03-21T09:03:41.154Z,34.60
2019-03-21T09:06:09.019Z,36.63
2019-03-21T09:08:37.140Z,37.63
2019-03-21T09:11:05.022Z,40.83
2019-03-21T09:13:33.219Z,40.93
2019-03-21T09:16:01.050Z,42.87
2019-03-21T09:18:28.991Z,36.97
2019-03-21T09:20:57.235Z,36.93
2019-03-21T09:23:25.501Z,33.17
2019-03-21T09:25:53.721Z,32.27
2019-03-21T09:28:21.652Z,29.40
2019-03-21T09:30:50.763Z,27.10
2019-03-21T09:33:19.318Z,22.03
2019-03-21T09:35:47.202Z,21.57
2019-03-21T09:38:15.144Z,23.20
2019-03-21T09:40:43.015Z,22.07
2019-03-21T09:43:10.976Z,25.03
2019-03-21T09:45:39.179Z,23.50
2019-03-21T09:48:07.159Z,20.17
2019-03-21T09:50:35.131Z,19.10
2019-03-21T09:53:03.139Z,18.57
2019-03-21T09:55:31.343Z,22.57
2019-03-21T09:57:59.199Z,22.37
2019-03-21T10:00:31.377Z,21.60
2019-03-21T10:02:59.345Z,21.90
2019-03-21T10:05:27.609Z,22.60
2019-03-21T10:07:55.792Z,23.30
2019-03-21T10:10:28.293Z,21.97
2019-03-21T10:12:56.161Z,23.70
2019-03-21T10:15:24.300Z,23.70
2019-03-21T10:17:52.191Z,24.67
2019-03-21T10:20:20.060Z,25.77
2019-03-21T10:22:48.301Z,27.63
2019-03-21T10:25:16.863Z,24.47
2019-03-21T10:27:45.034Z,23.57
2019-03-21T10:30:19.139Z,29.60
2019-03-21T10:32:47.250Z,28.17
2019-03-21T10:35:15.101Z,30.33
2019-03-21T10:37:42.943Z,32.87
2019-03-21T10:40:10.847Z,30.53
2019-03-21T10:42:39.079Z,29.27
2019-03-21T10:45:06.904Z,30.17
2019-03-21T10:47:34.979Z,29.73
2019-03-21T10:50:03.346Z,30.47
2019-03-21T10:52:31.190Z,31.43
2019-03-21T10:54:58.945Z,29.00
2019-03-21T10:57:27.119Z,25.08
2019-03-21T10:59:55.034Z,20.97
2019-03-21T11:02:22.873Z,22.07
2019-03-21T11:04:50.699Z,21.97
2019-03-21T11:07:16.976Z,23.83
2019-03-21T11:09:44.926Z,24.45
2019-03-21T11:12:13.176Z,20.45
2019-03-21T11:14:41.090Z,19.98
2019-03-21T11:17:08.932Z,23.18
2019-03-21T11:19:37.046Z,22.93
2019-03-21T11:22:06.563Z,23.50
2019-03-21T11:24:34.569Z,22.98
2019-03-21T11:27:02.479Z,24.45
2019-03-21T11:29:30.395Z,24.72
2019-03-21T11:31:58.320Z,23.22
2019-03-21T11:34:26.139Z,26.07
2019-03-21T11:36:54.020Z,22.30
2019-03-21T11:39:21.874Z,22.13
2019-03-21T11:41:49.731Z,21.30
2019-03-21T11:44:17.581Z,22.15
2019-03-21T11:46:45.499Z,22.47
2019-03-21T11:49:13.727Z,23.12
2019-03-21T11:51:41.641Z,24.98
2019-03-21T11:54:09.571Z,25.23
2019-03-21T11:56:37.665Z,25.25
2019-03-21T11:59:05.496Z,25.80
2019-03-21T12:01:33.423Z,23.87
2019-03-21T12:04:01.315Z,24.25
2019-03-21T12:06:29.505Z,24.40
2019-03-21T12:08:57.373Z,25.20
2019-03-21T12:11:25.213Z,23.87
2019-03-21T12:13:53.291Z,24.47
2019-03-21T12:16:21.410Z,24.37
2019-03-21T12:18:49.359Z,24.20
2019-03-21T12:21:17.210Z,23.05
2019-03-21T12:23:45.407Z,22.73
2019-03-21T12:26:13.255Z,22.85
2019-03-21T12:28:41.075Z,24.43
2019-03-21T12:31:09.215Z,24.63
2019-03-21T12:33:37.143Z,24.12
2019-03-21T12:36:05.236Z,22.95
2019-03-21T12:38:33.698Z,22.02
2019-03-21T12:41:01.536Z,22.30
2019-03-21T12:43:29.734Z,22.25
2019-03-21T12:45:58.068Z,20.62
2019-03-21T12:48:25.908Z,21.60
2019-03-21T12:50:54.321Z,19.77
2019-03-21T12:53:22.254Z,21.17
2019-03-21T12:55:50.258Z,20.77
2019-03-21T12:58:18.611Z,21.95
2019-03-21T13:00:46.846Z,21.05
2019-03-21T13:03:15.058Z,20.35
2019-03-21T13:05:43.253Z,19.20
2019-03-21T13:08:11.159Z,19.85
2019-03-21T13:10:39.355Z,20.00
2019-03-21T13:13:07.309Z,19.67
2019-03-21T13:15:35.456Z,19.52
2019-03-21T13:18:04.973Z,18.45
2019-03-21T13:20:32.807Z,18.95
2019-03-21T13:23:00.801Z,19.60
2019-03-21T13:25:28.635Z,18.12
2019-03-21T13:27:56.468Z,22.27
2019-03-21T13:30:24.609Z,20.27
2019-03-21T13:32:52.456Z,19.57
2019-03-21T13:35:31.637Z,18.95
2019-03-21T13:37:50.229Z,17.98
2019-03-21T13:40:18.190Z,16.87
2019-03-21T13:42:46.149Z,15.83
2019-03-21T13:45:14.289Z,16.00
2019-03-21T13:47:42.205Z,16.70
2019-03-21T13:50:10.551Z,15.63
2019-03-21T13:52:38.742Z,16.07
2019-03-21T13:55:07.198Z,14.38
2019-03-21T13:57:35.091Z,14.85
2019-03-21T14:00:04.347Z,16.87
2019-03-21T14:02:32.193Z,16.37
2019-03-21T14:05:00.339Z,17.07
2019-03-21T14:07:28.202Z,16.42
2019-03-21T14:09:56.033Z,16.60
2019-03-21T14:12:23.873Z,16.20
2019-03-21T14:14:51.965Z,15.78
2019-03-21T14:17:22.129Z,15.70
2019-03-21T14:19:49.544Z,15.95
2019-03-21T14:22:17.535Z,15.48
2019-03-21T14:24:45.464Z,16.10
2019-03-21T14:27:13.579Z,15.80
2019-03-21T14:29:41.420Z,15.53
2019-03-21T14:32:09.589Z,15.43
2019-03-21T14:34:37.455Z,15.70
2019-03-21T14:37:05.958Z,15.95
2019-03-21T14:39:33.854Z,15.03
2019-03-21T14:42:02.227Z,14.98
2019-03-21T14:44:30.168Z,14.85
2019-03-21T14:46:58.269Z,14.30
2019-03-21T14:49:26.490Z,15.38
2019-03-21T14:51:54.655Z,15.43
2019-03-21T14:54:23.039Z,14.05
2019-03-21T14:56:51.213Z,15.53
2019-03-21T14:59:19.024Z,14.80
2019-03-21T15:01:47.148Z,15.03
2019-03-21T15:04:15.266Z,13.18
2019-03-21T15:06:43.169Z,14.90
2019-03-21T15:09:11.089Z,14.70
2019-03-21T15:11:39.455Z,14.13
2019-03-21T15:14:07.651Z,13.55
2019-03-21T15:16:35.780Z,14.63
2019-03-21T15:19:03.586Z,14.50
2019-03-21T15:21:31.421Z,14.25
2019-03-21T15:24:00.145Z,14.43
2019-03-21T15:26:28.111Z,14.15
2019-03-21T15:28:56.022Z,13.35
2019-03-21T15:31:23.997Z,13.58
2019-03-21T15:33:51.970Z,14.20
2019-03-21T15:36:20.200Z,14.98
2019-03-21T15:38:48.085Z,15.43
2019-03-21T15:41:16.028Z,13.72
2019-03-21T15:43:43.844Z,17.33
2019-03-21T15:46:12.099Z,15.13
2019-03-21T15:48:41.996Z,14.63
2019-03-21T15:51:09.825Z,16.77
2019-03-21T15:53:37.758Z,14.87
2019-03-21T15:56:05.963Z,14.40
2019-03-21T15:58:33.863Z,15.60
2019-03-21T16:01:01.770Z,16.00
2019-03-21T16:03:29.601Z,15.60
2019-03-21T16:05:57.616Z,15.73
2019-03-21T16:08:27.230Z,16.23
2019-03-21T16:10:55.197Z,15.73
2019-03-21T16:13:23.118Z,15.47
2019-03-21T16:15:51.051Z,16.83
2019-03-21T16:18:18.874Z,16.43
2019-03-21T16:20:46.690Z,24.87
2019-03-21T16:23:14.651Z,26.20
2019-03-21T16:25:42.509Z,27.20
2019-03-21T16:28:10.724Z,26.70
2019-03-21T16:30:38.602Z,26.17
2019-03-21T16:33:06.814Z,26.57
2019-03-21T16:35:34.935Z,26.27
2019-03-21T16:38:03.218Z,25.87
2019-03-21T16:40:31.432Z,27.47
2019-03-21T16:42:59.250Z,26.47
2019-03-21T16:45:27.165Z,27.60
2019-03-21T16:47:55.036Z,27.13
2019-03-21T16:50:23.022Z,29.73
2019-03-21T16:52:51.134Z,29.77
2019-03-21T16:55:18.987Z,30.90
2019-03-21T16:57:46.906Z,30.10
2019-03-21T17:00:17.606Z,30.23
2019-03-21T17:02:45.641Z,30.23
2019-03-21T17:05:13.489Z,30.63
2019-03-21T17:07:41.749Z,31.53
2019-03-21T17:10:12.629Z,30.87
2019-03-21T17:12:40.809Z,32.33
2019-03-21T17:15:09.175Z,32.07
2019-03-21T17:17:37.063Z,32.27
2019-03-21T17:20:05.188Z,32.33
2019-03-21T17:22:33.199Z,32.83
2019-03-21T17:25:01.074Z,32.30
2019-03-21T17:27:29.023Z,33.93
2019-03-21T17:29:57.011Z,32.87
2019-03-21T17:32:25.215Z,32.40
2019-03-21T17:34:53.098Z,30.87
2019-03-21T17:37:21.338Z,31.37
2019-03-21T17:39:49.062Z,32.60
2019-03-21T17:42:16.967Z,29.03
2019-03-21T17:44:44.828Z,28.17
2019-03-21T17:47:12.703Z,26.87
2019-03-21T17:49:40.518Z,25.30
2019-03-21T17:52:08.462Z,23.87
2019-03-21T17:54:41.387Z,23.70
2019-03-21T17:57:06.036Z,23.47
2019-03-21T17:59:34.616Z,22.53
2019-03-21T18:02:02.600Z,22.47
2019-03-21T18:04:30.520Z,22.23
2019-03-21T18:06:58.924Z,21.90
2019-03-21T18:09:26.871Z,23.43
2019-03-21T18:11:55.137Z,21.97
2019-03-21T18:14:23.397Z,20.40
2019-03-21T18:16:51.568Z,21.00
2019-03-21T18:19:20.091Z,19.60
2019-03-21T18:21:48.098Z,20.13
2019-03-21T18:24:16.080Z,19.23
2019-03-21T18:26:44.033Z,18.60
2019-03-21T18:29:12.160Z,17.63
2019-03-21T18:31:40.504Z,17.77
2019-03-21T18:34:08.476Z,15.67
2019-03-21T18:36:36.418Z,17.07
2019-03-21T18:39:06.852Z,17.27
2019-03-21T18:41:34.775Z,15.47
2019-03-21T18:44:02.701Z,15.33
2019-03-21T18:46:30.975Z,15.33
2019-03-21T18:48:59.082Z,15.43
2019-03-21T18:51:26.904Z,15.30
2019-03-21T18:53:54.784Z,14.63
2019-03-21T18:56:22.741Z,16.10
2019-03-21T18:58:50.976Z,14.83
2019-03-21T19:01:19.300Z,14.47
2019-03-21T19:03:47.439Z,14.00
2019-03-21T19:06:15.368Z,14.67
2019-03-21T19:08:43.322Z,15.03
2019-03-21T19:11:11.255Z,15.27
2019-03-21T19:13:43.803Z,15.27
2019-03-21T19:16:12.925Z,14.77
2019-03-21T19:18:40.942Z,15.17
2019-03-21T19:21:09.504Z,14.83
2019-03-21T19:23:37.926Z,14.53
2019-03-21T19:26:05.870Z,15.13
2019-03-21T19:28:34.706Z,15.17
2019-03-21T19:31:03.620Z,17.10
2019-03-21T19:33:31.474Z,17.97
2019-03-21T19:36:01.913Z,17.37
2019-03-21T19:38:29.997Z,18.33
2019-03-21T19:40:58.374Z,18.77
2019-03-21T19:43:26.357Z,19.23
2019-03-21T19:45:56.473Z,19.13
2019-03-21T19:48:26.265Z,19.60
2019-03-21T19:50:54.221Z,18.93
2019-03-21T19:53:22.383Z,21.17
2019-03-21T19:55:50.561Z,21.27
2019-03-21T19:58:18.728Z,20.27
2019-03-21T20:00:46.596Z,20.27
2019-03-21T20:03:14.597Z,20.43
2019-03-21T20:05:46.619Z,20.40
2019-03-21T20:08:14.718Z,21.13
2019-03-21T20:10:42.725Z,21.37
2019-03-21T20:13:10.922Z,21.93
2019-03-21T20:15:43.618Z,22.07
2019-03-21T20:18:11.850Z,21.40
2019-03-21T20:20:42.151Z,21.27
2019-03-21T20:23:11.401Z,22.47
2019-03-21T20:25:43.119Z,22.50
2019-03-21T20:28:09.822Z,22.60
2019-03-21T20:30:38.009Z,22.83
2019-03-21T20:33:06.148Z,23.13
2019-03-21T20:35:34.083Z,24.00
2019-03-21T20:38:02.729Z,24.03
2019-03-21T20:40:30.704Z,25.10
2019-03-21T20:42:58.570Z,24.03
2019-03-21T20:45:26.474Z,23.30
2019-03-21T20:47:54.374Z,23.83
2019-03-21T20:50:22.453Z,24.73
2019-03-21T20:52:50.318Z,24.43
2019-03-21T20:55:18.280Z,24.13
2019-03-21T20:57:46.371Z,23.53
2019-03-21T21:00:16.417Z,23.97
2019-03-21T21:02:44.662Z,24.57
2019-03-21T21:05:12.824Z,24.93
2019-03-21T21:07:40.817Z,25.50
2019-03-21T21:10:09.624Z,24.50
2019-03-21T21:12:37.587Z,25.03
2019-03-21T21:15:06.576Z,24.90
2019-03-21T21:17:34.570Z,24.63
2019-03-21T21:20:02.558Z,24.90
2019-03-21T21:22:31.117Z,23.93
2019-03-21T21:24:59.388Z,25.93
2019-03-21T21:27:27.953Z,24.30
2019-03-21T21:29:56.274Z,24.67
2019-03-21T21:32:24.482Z,25.13
2019-03-21T21:34:54.580Z,25.10
2019-03-21T21:37:22.784Z,25.40
2019-03-21T21:39:51.182Z,25.17
2019-03-21T21:42:19.345Z,24.53
2019-03-21T21:44:47.306Z,25.20
2019-03-21T21:47:15.558Z,25.43
2019-03-21T21:49:43.429Z,25.97
2019-03-21T21:52:11.367Z,27.20
2019-03-21T21:54:39.504Z,24.97
2019-03-21T21:57:07.437Z,26.30
2019-03-21T21:59:35.292Z,24.87
2019-03-21T22:02:03.124Z,26.07
2019-03-21T22:04:30.952Z,25.20
2019-03-21T22:06:59.095Z,23.87
2019-03-21T22:09:27.024Z,25.10
2019-03-21T22:11:54.765Z,24.43
2019-03-21T22:14:22.886Z,25.50
2019-03-21T22:16:51.139Z,26.17
2019-03-21T22:19:19.484Z,26.03
2019-03-21T22:21:47.317Z,26.30
2019-03-21T22:24:15.278Z,25.93
2019-03-21T22:26:43.486Z,25.90
2019-03-21T22:29:11.381Z,27.10
2019-03-21T22:31:39.670Z,25.27
2019-03-21T22:34:07.492Z,25.97
2019-03-21T22:36:35.646Z,26.23
2019-03-21T22:39:08.213Z,26.10
2019-03-21T22:41:36.174Z,27.33
2019-03-21T22:44:03.993Z,25.73
2019-03-21T22:46:32.173Z,25.27
2019-03-21T22:49:00.707Z,25.57
2019-03-21T22:51:28.704Z,27.43
2019-03-21T22:53:56.690Z,26.50
2019-03-21T22:56:24.983Z,25.53
2019-03-21T22:58:52.938Z,26.43
2019-03-21T23:01:20.919Z,26.67
2019-03-21T23:03:48.791Z,27.07
2019-03-21T23:06:17.196Z,26.53
2019-03-21T23:08:45.131Z,26.83
2019-03-21T23:11:13.258Z,27.30
2019-03-21T23:13:41.269Z,27.40
2019-03-21T23:16:09.205Z,25.90
2019-03-21T23:18:37.044Z,27.60
2019-03-21T23:21:05.006Z,28.00
2019-03-21T23:23:33.527Z,26.57
2019-03-21T23:26:01.666Z,27.27
2019-03-21T23:28:29.607Z,28.70
2019-03-21T23:30:58.222Z,26.13
2019-03-21T23:33:26.179Z,28.73
2019-03-21T23:35:54.448Z,28.57
2019-03-21T23:38:22.318Z,26.70
2019-03-21T23:40:50.155Z,26.53
2019-03-21T23:43:18.313Z,26.93
2019-03-21T23:45:46.512Z,27.03
2019-03-21T23:48:14.489Z,26.67
2019-03-21T23:50:42.406Z,27.87
2019-03-21T23:53:10.525Z,27.03
2019-03-21T23:55:38.443Z,25.90
2019-03-21T23:58:06.386Z,26.37
